sensor_id;sensor_type;location;lat;lon;timestamp;temperature;humidity
2407;DHT22;37709;53.480;9.688;2022-11-18T00:01:22;2.20;99.90
2407;DHT22;37709;53.480;9.688;2022-11-18T00:03:50;2.20;99.90
2407;DHT22;37709;53.480;9.688;2022-11-18T00:06:19;2.20;99.90
2407;DHT22;37709;53.480;9.688;2022-11-18T00:08:47;2.20;99.90
2407;DHT22;37709;53.480;9.688;2022-11-18T00:11:42;2.20;99.90
2407;DHT22;37709;53.480;9.688;2022-11-18T00:14:28;2.20;99.90
2407;DHT22;37709;53.480;9.688;2022-11-18T00:16:58;2.20;99.90
2407;DHT22;37709;53.480;9.688;2022-11-18T00:19:29;2.20;99.90
2407;DHT22;37709;53.480;9.688;2022-11-18T00:21:57;2.10;99.90
2407;DHT22;37709;53.480;9.688;2022-11-18T00:24:25;2.10;99.90
2407;DHT22;37709;53.480;9.688;2022-11-18T00:26:53;2.10;99.90
2407;DHT22;37709;53.480;9.688;2022-11-18T00:29:21;2.10;99.90
2407;DHT22;37709;53.480;9.688;2022-11-18T00:31:48;2.10;99.90
2407;DHT22;37709;53.480;9.688;2022-11-18T00:34:17;2.10;99.90
2407;DHT22;37709;53.480;9.688;2022-11-18T00:36:46;2.10;99.90
2407;DHT22;37709;53.480;9.688;2022-11-18T00:39:16;2.10;99.90
2407;DHT22;37709;53.480;9.688;2022-11-18T00:41:45;2.10;99.90
2407;DHT22;37709;53.480;9.688;2022-11-18T00:44:31;2.10;99.90
2407;DHT22;37709;53.480;9.688;2022-11-18T00:46:58;2.10;99.90
2407;DHT22;37709;53.480;9.688;2022-11-18T00:49:25;2.10;99.90
2407;DHT22;37709;53.480;9.688;2022-11-18T00:51:53;2.10;99.90
2407;DHT22;37709;53.480;9.688;2022-11-18T00:54:20;2.10;99.90
2407;DHT22;37709;53.480;9.688;2022-11-18T00:56:47;2.10;99.90
2407;DHT22;37709;53.480;9.688;2022-11-18T00:59:14;2.10;99.90
2407;DHT22;37709;53.480;9.688;2022-11-18T01:01:43;2.10;99.90
2407;DHT22;37709;53.480;9.688;2022-11-18T01:04:15;2.10;99.90
2407;DHT22;37709;53.480;9.688;2022-11-18T01:06:43;2.10;99.90
2407;DHT22;37709;53.480;9.688;2022-11-18T01:09:10;2.10;99.90
2407;DHT22;37709;53.480;9.688;2022-11-18T01:11:37;2.10;99.90
2407;DHT22;37709;53.480;9.688;2022-11-18T01:14:24;2.10;99.90
2407;DHT22;37709;53.480;9.688;2022-11-18T01:17:17;2.00;99.90
2407;DHT22;37709;53.480;9.688;2022-11-18T01:19:44;2.00;99.90
2407;DHT22;37709;53.480;9.688;2022-11-18T01:22:12;2.00;99.90
2407;DHT22;37709;53.480;9.688;2022-11-18T01:24:39;2.00;99.90
2407;DHT22;37709;53.480;9.688;2022-11-18T01:27:06;2.00;99.90
2407;DHT22;37709;53.480;9.688;2022-11-18T01:29:33;2.00;99.90
2407;DHT22;37709;53.480;9.688;2022-11-18T01:32:02;2.00;99.90
2407;DHT22;37709;53.480;9.688;2022-11-18T01:34:49;2.00;99.90
2407;DHT22;37709;53.480;9.688;2022-11-18T01:37:17;2.00;99.90
2407;DHT22;37709;53.480;9.688;2022-11-18T01:39:44;2.00;99.90
2407;DHT22;37709;53.480;9.688;2022-11-18T01:42:16;2.00;99.90
2407;DHT22;37709;53.480;9.688;2022-11-18T01:45:04;1.90;99.90
2407;DHT22;37709;53.480;9.688;2022-11-18T01:47:46;1.90;99.90
2407;DHT22;37709;53.480;9.688;2022-11-18T01:50:17;1.90;99.90
2407;DHT22;37709;53.480;9.688;2022-11-18T01:52:46;1.90;99.90
2407;DHT22;37709;53.480;9.688;2022-11-18T01:55:43;1.90;99.90
2407;DHT22;37709;53.480;9.688;2022-11-18T01:58:23;1.90;99.90
2407;DHT22;37709;53.480;9.688;2022-11-18T02:00:52;1.90;99.90
2407;DHT22;37709;53.480;9.688;2022-11-18T02:03:20;1.90;99.90
2407;DHT22;37709;53.480;9.688;2022-11-18T02:05:51;1.90;99.90
2407;DHT22;37709;53.480;9.688;2022-11-18T02:08:20;1.90;99.90
2407;DHT22;37709;53.480;9.688;2022-11-18T02:10:48;1.90;99.90
2407;DHT22;37709;53.480;9.688;2022-11-18T02:13:17;1.90;99.90
2407;DHT22;37709;53.480;9.688;2022-11-18T02:16:10;1.80;99.90
2407;DHT22;37709;53.480;9.688;2022-11-18T02:18:58;1.80;99.90
2407;DHT22;37709;53.480;9.688;2022-11-18T02:24:47;1.80;99.90
2407;DHT22;37709;53.480;9.688;2022-11-18T02:27:40;1.80;99.90
2407;DHT22;37709;53.480;9.688;2022-11-18T02:30:16;1.80;99.90
2407;DHT22;37709;53.480;9.688;2022-11-18T02:33:05;1.80;99.90
2407;DHT22;37709;53.480;9.688;2022-11-18T02:35:55;1.80;99.90
2407;DHT22;37709;53.480;9.688;2022-11-18T02:38:31;1.80;99.90
2407;DHT22;37709;53.480;9.688;2022-11-18T02:41:07;1.80;99.90
2407;DHT22;37709;53.480;9.688;2022-11-18T02:43:59;1.70;99.90
2407;DHT22;37709;53.480;9.688;2022-11-18T02:46:34;1.70;99.90
2407;DHT22;37709;53.480;9.688;2022-11-18T02:49:07;1.70;99.90
2407;DHT22;37709;53.480;9.688;2022-11-18T02:51:36;1.70;99.90
2407;DHT22;37709;53.480;9.688;2022-11-18T02:54:07;1.70;99.90
2407;DHT22;37709;53.480;9.688;2022-11-18T02:56:36;1.70;99.90
2407;DHT22;37709;53.480;9.688;2022-11-18T02:59:04;1.70;99.90
2407;DHT22;37709;53.480;9.688;2022-11-18T03:01:33;1.70;99.90
2407;DHT22;37709;53.480;9.688;2022-11-18T03:04:02;1.60;99.90
2407;DHT22;37709;53.480;9.688;2022-11-18T03:06:34;1.60;99.90
2407;DHT22;37709;53.480;9.688;2022-11-18T03:09:26;1.60;99.90
2407;DHT22;37709;53.480;9.688;2022-11-18T03:11:57;1.60;99.90
2407;DHT22;37709;53.480;9.688;2022-11-18T03:14:46;1.60;99.90
2407;DHT22;37709;53.480;9.688;2022-11-18T03:25:45;1.50;99.90
2407;DHT22;37709;53.480;9.688;2022-11-18T03:28:24;1.50;99.90
2407;DHT22;37709;53.480;9.688;2022-11-18T03:31:29;1.50;99.90
2407;DHT22;37709;53.480;9.688;2022-11-18T03:34:08;1.50;99.90
2407;DHT22;37709;53.480;9.688;2022-11-18T03:36:40;1.50;99.90
2407;DHT22;37709;53.480;9.688;2022-11-18T03:39:10;1.50;99.90
2407;DHT22;37709;53.480;9.688;2022-11-18T03:41:44;1.50;99.90
2407;DHT22;37709;53.480;9.688;2022-11-18T03:44:20;1.40;99.90
2407;DHT22;37709;53.480;9.688;2022-11-18T03:46:56;1.40;99.90
2407;DHT22;37709;53.480;9.688;2022-11-18T03:49:29;1.40;99.90
2407;DHT22;37709;53.480;9.688;2022-11-18T03:52:05;1.40;99.90
2407;DHT22;37709;53.480;9.688;2022-11-18T03:54:35;1.40;99.90
2407;DHT22;37709;53.480;9.688;2022-11-18T03:57:14;1.40;99.90
2407;DHT22;37709;53.480;9.688;2022-11-18T04:00:05;1.30;99.90
2407;DHT22;37709;53.480;9.688;2022-11-18T04:02:33;1.30;99.90
2407;DHT22;37709;53.480;9.688;2022-11-18T04:05:03;1.30;99.90
2407;DHT22;37709;53.480;9.688;2022-11-18T04:07:56;1.30;99.90
2407;DHT22;37709;53.480;9.688;2022-11-18T04:10:38;1.30;99.90
2407;DHT22;37709;53.480;9.688;2022-11-18T04:13:19;1.30;99.90
2407;DHT22;37709;53.480;9.688;2022-11-18T04:15:48;1.30;99.90
2407;DHT22;37709;53.480;9.688;2022-11-18T04:18:16;1.20;99.90
2407;DHT22;37709;53.480;9.688;2022-11-18T04:20:44;1.20;99.90
2407;DHT22;37709;53.480;9.688;2022-11-18T04:23:11;1.20;99.90
2407;DHT22;37709;53.480;9.688;2022-11-18T04:25:39;1.20;99.90
2407;DHT22;37709;53.480;9.688;2022-11-18T04:28:08;1.20;99.90
2407;DHT22;37709;53.480;9.688;2022-11-18T04:30:36;1.20;99.90
2407;DHT22;37709;53.480;9.688;2022-11-18T04:33:04;1.20;99.90
2407;DHT22;37709;53.480;9.688;2022-11-18T04:35:32;1.20;99.90
2407;DHT22;37709;53.480;9.688;2022-11-18T04:38:03;1.20;99.90
2407;DHT22;37709;53.480;9.688;2022-11-18T04:40:31;1.20;99.90
2407;DHT22;37709;53.480;9.688;2022-11-18T04:42:58;1.20;99.90
2407;DHT22;37709;53.480;9.688;2022-11-18T04:45:27;1.20;99.90
2407;DHT22;37709;53.480;9.688;2022-11-18T04:47:54;1.10;99.90
2407;DHT22;37709;53.480;9.688;2022-11-18T04:50:29;1.10;99.90
2407;DHT22;37709;53.480;9.688;2022-11-18T04:52:57;1.10;99.90
2407;DHT22;37709;53.480;9.688;2022-11-18T04:55:24;1.10;99.90
2407;DHT22;37709;53.480;9.688;2022-11-18T04:58:18;1.10;99.90
2407;DHT22;37709;53.480;9.688;2022-11-18T05:00:49;1.10;99.90
2407;DHT22;37709;53.480;9.688;2022-11-18T05:03:16;1.10;99.90
2407;DHT22;37709;53.480;9.688;2022-11-18T05:05:44;1.10;99.90
2407;DHT22;37709;53.480;9.688;2022-11-18T05:08:12;1.10;99.90
2407;DHT22;37709;53.480;9.688;2022-11-18T05:10:39;1.10;99.90
2407;DHT22;37709;53.480;9.688;2022-11-18T05:13:07;1.10;99.90
2407;DHT22;37709;53.480;9.688;2022-11-18T05:15:34;1.10;99.90
2407;DHT22;37709;53.480;9.688;2022-11-18T05:18:01;1.10;99.90
2407;DHT22;37709;53.480;9.688;2022-11-18T05:20:28;1.10;99.90
2407;DHT22;37709;53.480;9.688;2022-11-18T05:22:56;1.10;99.90
2407;DHT22;37709;53.480;9.688;2022-11-18T05:25:23;1.10;99.90
2407;DHT22;37709;53.480;9.688;2022-11-18T05:27:50;1.10;99.90
2407;DHT22;37709;53.480;9.688;2022-11-18T05:30:18;1.10;99.90
2407;DHT22;37709;53.480;9.688;2022-11-18T05:32:45;1.10;99.90
2407;DHT22;37709;53.480;9.688;2022-11-18T05:35:15;1.10;99.90
2407;DHT22;37709;53.480;9.688;2022-11-18T05:37:42;1.10;99.90
2407;DHT22;37709;53.480;9.688;2022-11-18T05:40:10;1.00;99.90
2407;DHT22;37709;53.480;9.688;2022-11-18T05:42:37;1.10;99.90
2407;DHT22;37709;53.480;9.688;2022-11-18T05:45:23;1.00;99.90
2407;DHT22;37709;53.480;9.688;2022-11-18T05:47:50;1.00;99.90
2407;DHT22;37709;53.480;9.688;2022-11-18T05:50:27;1.00;99.90
2407;DHT22;37709;53.480;9.688;2022-11-18T05:53:23;1.00;99.90
2407;DHT22;37709;53.480;9.688;2022-11-18T05:56:05;1.00;99.90
2407;DHT22;37709;53.480;9.688;2022-11-18T05:58:33;1.00;99.90
2407;DHT22;37709;53.480;9.688;2022-11-18T06:01:04;1.00;99.90
2407;DHT22;37709;53.480;9.688;2022-11-18T06:03:36;1.00;99.90
2407;DHT22;37709;53.480;9.688;2022-11-18T06:06:06;1.00;99.90
2407;DHT22;37709;53.480;9.688;2022-11-18T06:08:45;0.90;99.90
2407;DHT22;37709;53.480;9.688;2022-11-18T06:11:15;0.90;99.90
2407;DHT22;37709;53.480;9.688;2022-11-18T06:13:50;0.90;99.90
2407;DHT22;37709;53.480;9.688;2022-11-18T06:16:24;0.90;99.90
2407;DHT22;37709;53.480;9.688;2022-11-18T06:18:52;0.90;99.90
2407;DHT22;37709;53.480;9.688;2022-11-18T06:21:20;0.90;99.90
2407;DHT22;37709;53.480;9.688;2022-11-18T06:23:47;0.90;99.90
2407;DHT22;37709;53.480;9.688;2022-11-18T06:26:15;0.80;99.90
2407;DHT22;37709;53.480;9.688;2022-11-18T06:28:45;0.80;99.90
2407;DHT22;37709;53.480;9.688;2022-11-18T06:31:12;0.80;99.90
2407;DHT22;37709;53.480;9.688;2022-11-18T06:33:40;0.80;99.90
2407;DHT22;37709;53.480;9.688;2022-11-18T06:36:07;0.80;99.90
2407;DHT22;37709;53.480;9.688;2022-11-18T06:38:35;0.80;99.90
2407;DHT22;37709;53.480;9.688;2022-11-18T06:41:02;0.80;99.90
2407;DHT22;37709;53.480;9.688;2022-11-18T06:43:29;0.80;99.90
2407;DHT22;37709;53.480;9.688;2022-11-18T06:46:16;0.80;99.90
2407;DHT22;37709;53.480;9.688;2022-11-18T06:49:02;0.70;99.90
2407;DHT22;37709;53.480;9.688;2022-11-18T06:51:30;0.70;99.90
2407;DHT22;37709;53.480;9.688;2022-11-18T06:53:59;0.70;99.90
2407;DHT22;37709;53.480;9.688;2022-11-18T06:56:28;0.70;99.90
2407;DHT22;37709;53.480;9.688;2022-11-18T06:58:57;0.70;99.90
2407;DHT22;37709;53.480;9.688;2022-11-18T07:01:27;0.70;99.90
2407;DHT22;37709;53.480;9.688;2022-11-18T07:03:57;0.60;99.90
2407;DHT22;37709;53.480;9.688;2022-11-18T07:06:27;0.60;99.90
2407;DHT22;37709;53.480;9.688;2022-11-18T07:09:20;0.60;99.90
2407;DHT22;37709;53.480;9.688;2022-11-18T07:11:47;0.60;99.90
2407;DHT22;37709;53.480;9.688;2022-11-18T07:14:15;0.60;99.90
2407;DHT22;37709;53.480;9.688;2022-11-18T07:16:42;0.50;99.90
2407;DHT22;37709;53.480;9.688;2022-11-18T07:19:12;0.60;99.90
2407;DHT22;37709;53.480;9.688;2022-11-18T07:21:40;0.60;99.90
2407;DHT22;37709;53.480;9.688;2022-11-18T07:24:12;0.60;99.90
2407;DHT22;37709;53.480;9.688;2022-11-18T07:26:41;0.60;99.90
2407;DHT22;37709;53.480;9.688;2022-11-18T07:29:08;0.60;99.90
2407;DHT22;37709;53.480;9.688;2022-11-18T07:31:36;0.60;99.90
2407;DHT22;37709;53.480;9.688;2022-11-18T07:34:06;0.60;99.90
2407;DHT22;37709;53.480;9.688;2022-11-18T07:36:33;0.60;99.90
2407;DHT22;37709;53.480;9.688;2022-11-18T07:39:04;0.60;99.90
2407;DHT22;37709;53.480;9.688;2022-11-18T07:41:33;0.60;99.90
2407;DHT22;37709;53.480;9.688;2022-11-18T07:44:02;0.60;99.90
2407;DHT22;37709;53.480;9.688;2022-11-18T07:46:35;0.60;99.90
2407;DHT22;37709;53.480;9.688;2022-11-18T07:49:05;0.60;99.90
2407;DHT22;37709;53.480;9.688;2022-11-18T07:51:35;0.60;99.90
2407;DHT22;37709;53.480;9.688;2022-11-18T07:54:09;0.60;99.90
2407;DHT22;37709;53.480;9.688;2022-11-18T07:56:36;0.60;99.90
2407;DHT22;37709;53.480;9.688;2022-11-18T07:59:04;0.60;99.90
2407;DHT22;37709;53.480;9.688;2022-11-18T08:01:32;0.60;99.90
2407;DHT22;37709;53.480;9.688;2022-11-18T08:04:07;0.60;99.90
2407;DHT22;37709;53.480;9.688;2022-11-18T08:06:36;0.60;99.90
2407;DHT22;37709;53.480;9.688;2022-11-18T08:09:04;0.70;99.90
2407;DHT22;37709;53.480;9.688;2022-11-18T08:11:32;0.70;99.90
2407;DHT22;37709;53.480;9.688;2022-11-18T08:13:59;0.70;99.90
2407;DHT22;37709;53.480;9.688;2022-11-18T08:16:27;0.70;99.90
2407;DHT22;37709;53.480;9.688;2022-11-18T08:18:59;0.70;99.90
2407;DHT22;37709;53.480;9.688;2022-11-18T08:21:27;0.70;99.90
2407;DHT22;37709;53.480;9.688;2022-11-18T08:23:56;0.70;99.90
2407;DHT22;37709;53.480;9.688;2022-11-18T08:26:24;0.70;99.90
2407;DHT22;37709;53.480;9.688;2022-11-18T08:28:56;0.70;99.90
2407;DHT22;37709;53.480;9.688;2022-11-18T08:31:26;0.70;99.90
2407;DHT22;37709;53.480;9.688;2022-11-18T08:34:00;0.70;99.90
2407;DHT22;37709;53.480;9.688;2022-11-18T08:36:33;0.70;99.90
2407;DHT22;37709;53.480;9.688;2022-11-18T08:39:03;0.80;99.90
2407;DHT22;37709;53.480;9.688;2022-11-18T08:41:33;0.80;99.90
2407;DHT22;37709;53.480;9.688;2022-11-18T08:44:04;0.90;99.90
2407;DHT22;37709;53.480;9.688;2022-11-18T08:46:32;0.80;99.90
2407;DHT22;37709;53.480;9.688;2022-11-18T08:48:59;0.90;99.90
2407;DHT22;37709;53.480;9.688;2022-11-18T08:51:27;0.90;99.90
2407;DHT22;37709;53.480;9.688;2022-11-18T08:53:55;0.90;99.90
2407;DHT22;37709;53.480;9.688;2022-11-18T08:56:23;0.80;99.90
2407;DHT22;37709;53.480;9.688;2022-11-18T08:58:51;0.80;99.90
2407;DHT22;37709;53.480;9.688;2022-11-18T09:01:18;0.70;99.90
2407;DHT22;37709;53.480;9.688;2022-11-18T09:03:47;0.80;99.90
2407;DHT22;37709;53.480;9.688;2022-11-18T09:06:17;0.90;99.90
2407;DHT22;37709;53.480;9.688;2022-11-18T09:08:45;0.80;99.90
2407;DHT22;37709;53.480;9.688;2022-11-18T09:11:18;0.80;99.90
2407;DHT22;37709;53.480;9.688;2022-11-18T09:13:46;0.80;99.90
2407;DHT22;37709;53.480;9.688;2022-11-18T09:16:34;0.80;99.90
2407;DHT22;37709;53.480;9.688;2022-11-18T09:19:03;0.80;99.90
2407;DHT22;37709;53.480;9.688;2022-11-18T09:21:50;0.80;99.90
2407;DHT22;37709;53.480;9.688;2022-11-18T09:24:17;0.90;99.90
2407;DHT22;37709;53.480;9.688;2022-11-18T09:26:45;0.90;99.90
2407;DHT22;37709;53.480;9.688;2022-11-18T09:29:15;0.90;99.90
2407;DHT22;37709;53.480;9.688;2022-11-18T09:31:42;1.00;99.90
2407;DHT22;37709;53.480;9.688;2022-11-18T09:34:10;1.10;99.90
2407;DHT22;37709;53.480;9.688;2022-11-18T09:36:41;1.20;99.90
2407;DHT22;37709;53.480;9.688;2022-11-18T09:39:10;1.30;99.90
2407;DHT22;37709;53.480;9.688;2022-11-18T09:47:23;1.20;99.90
2407;DHT22;37709;53.480;9.688;2022-11-18T09:50:01;1.00;99.90
2407;DHT22;37709;53.480;9.688;2022-11-18T09:53:12;1.00;99.90
2407;DHT22;37709;53.480;9.688;2022-11-18T09:55:42;0.90;99.90
2407;DHT22;37709;53.480;9.688;2022-11-18T09:58:17;0.90;99.90
2407;DHT22;37709;53.480;9.688;2022-11-18T10:00:46;1.00;99.90
2407;DHT22;37709;53.480;9.688;2022-11-18T10:03:38;1.00;99.90
2407;DHT22;37709;53.480;9.688;2022-11-18T10:11:13;1.10;99.90
2407;DHT22;37709;53.480;9.688;2022-11-18T10:16:53;1.10;99.90
2407;DHT22;37709;53.480;9.688;2022-11-18T10:19:51;1.10;99.90
2407;DHT22;37709;53.480;9.688;2022-11-18T10:22:46;1.20;99.90
2407;DHT22;37709;53.480;9.688;2022-11-18T10:25:16;1.30;99.90
2407;DHT22;37709;53.480;9.688;2022-11-18T10:27:46;1.50;99.90
2407;DHT22;37709;53.480;9.688;2022-11-18T10:33:00;1.50;99.90
2407;DHT22;37709;53.480;9.688;2022-11-18T10:35:36;1.50;99.90
2407;DHT22;37709;53.480;9.688;2022-11-18T10:40:57;1.70;99.90
2407;DHT22;37709;53.480;9.688;2022-11-18T10:46:28;1.60;99.90
2407;DHT22;37709;53.480;9.688;2022-11-18T10:49:12;1.70;99.90
2407;DHT22;37709;53.480;9.688;2022-11-18T10:52:09;1.60;99.90
2407;DHT22;37709;53.480;9.688;2022-11-18T10:54:38;1.70;99.90
2407;DHT22;37709;53.480;9.688;2022-11-18T10:59:46;1.80;99.90
2407;DHT22;37709;53.480;9.688;2022-11-18T11:04:50;1.70;99.90
2407;DHT22;37709;53.480;9.688;2022-11-18T11:12:36;1.90;99.90
2407;DHT22;37709;53.480;9.688;2022-11-18T11:15:27;1.90;99.90
2407;DHT22;37709;53.480;9.688;2022-11-18T11:18:19;1.90;99.90
2407;DHT22;37709;53.480;9.688;2022-11-18T11:21:17;2.00;99.90
2407;DHT22;37709;53.480;9.688;2022-11-18T11:24:10;2.00;99.90
2407;DHT22;37709;53.480;9.688;2022-11-18T11:30:21;2.10;99.90
2407;DHT22;37709;53.480;9.688;2022-11-18T11:33:18;2.10;99.90
2407;DHT22;37709;53.480;9.688;2022-11-18T11:35:53;2.20;99.90
2407;DHT22;37709;53.480;9.688;2022-11-18T11:41:06;2.20;99.90
2407;DHT22;37709;53.480;9.688;2022-11-18T11:43:57;2.20;99.90
2407;DHT22;37709;53.480;9.688;2022-11-18T11:46:52;2.20;99.90
2407;DHT22;37709;53.480;9.688;2022-11-18T11:50:21;2.20;99.90
2407;DHT22;37709;53.480;9.688;2022-11-18T11:59:41;1.90;99.90
2407;DHT22;37709;53.480;9.688;2022-11-18T12:02:39;2.00;99.90
2407;DHT22;37709;53.480;9.688;2022-11-18T12:05:36;2.00;99.90
2407;DHT22;37709;53.480;9.688;2022-11-18T12:08:15;2.00;99.90
2407;DHT22;37709;53.480;9.688;2022-11-18T12:10:47;2.00;99.90
2407;DHT22;37709;53.480;9.688;2022-11-18T12:13:25;1.90;99.90
2407;DHT22;37709;53.480;9.688;2022-11-18T12:18:52;1.90;99.90
2407;DHT22;37709;53.480;9.688;2022-11-18T12:26:50;2.00;99.90
2407;DHT22;37709;53.480;9.688;2022-11-18T12:31:51;2.00;99.90
2407;DHT22;37709;53.480;9.688;2022-11-18T12:34:41;2.10;99.90
2407;DHT22;37709;53.480;9.688;2022-11-18T12:39:56;2.30;99.90
2407;DHT22;37709;53.480;9.688;2022-11-18T12:42:41;2.30;99.90
2407;DHT22;37709;53.480;9.688;2022-11-18T12:48:37;2.50;99.90
2407;DHT22;37709;53.480;9.688;2022-11-18T12:53:52;2.50;99.90
2407;DHT22;37709;53.480;9.688;2022-11-18T12:56:23;2.50;99.90
2407;DHT22;37709;53.480;9.688;2022-11-18T12:58:56;2.40;99.90
2407;DHT22;37709;53.480;9.688;2022-11-18T13:01:33;2.30;99.90
2407;DHT22;37709;53.480;9.688;2022-11-18T13:04:15;2.30;99.90
2407;DHT22;37709;53.480;9.688;2022-11-18T13:06:43;2.20;99.90
2407;DHT22;37709;53.480;9.688;2022-11-18T13:09:16;2.20;99.90
2407;DHT22;37709;53.480;9.688;2022-11-18T13:11:57;2.10;99.90
2407;DHT22;37709;53.480;9.688;2022-11-18T13:14:31;2.10;99.90
2407;DHT22;37709;53.480;9.688;2022-11-18T13:17:34;2.10;99.90
2407;DHT22;37709;53.480;9.688;2022-11-18T13:20:28;2.10;99.90
2407;DHT22;37709;53.480;9.688;2022-11-18T13:23:02;2.00;99.90
2407;DHT22;37709;53.480;9.688;2022-11-18T13:25:50;2.00;99.90
2407;DHT22;37709;53.480;9.688;2022-11-18T13:28:26;2.00;99.90
2407;DHT22;37709;53.480;9.688;2022-11-18T13:33:52;1.90;99.90
2407;DHT22;37709;53.480;9.688;2022-11-18T13:36:23;1.90;99.90
2407;DHT22;37709;53.480;9.688;2022-11-18T13:39:03;1.90;99.90
2407;DHT22;37709;53.480;9.688;2022-11-18T13:41:34;1.90;99.90
2407;DHT22;37709;53.480;9.688;2022-11-18T13:44:21;1.90;99.90
2407;DHT22;37709;53.480;9.688;2022-11-18T13:46:54;1.90;99.90
2407;DHT22;37709;53.480;9.688;2022-11-18T13:49:50;1.90;99.90
2407;DHT22;37709;53.480;9.688;2022-11-18T13:52:24;1.90;99.90
2407;DHT22;37709;53.480;9.688;2022-11-18T13:54:55;1.80;99.90
2407;DHT22;37709;53.480;9.688;2022-11-18T13:57:26;1.80;99.90
2407;DHT22;37709;53.480;9.688;2022-11-18T14:00:01;1.80;99.90
2407;DHT22;37709;53.480;9.688;2022-11-18T14:02:31;1.70;99.90
2407;DHT22;37709;53.480;9.688;2022-11-18T14:05:04;1.70;99.90
2407;DHT22;37709;53.480;9.688;2022-11-18T14:07:33;1.60;99.90
2407;DHT22;37709;53.480;9.688;2022-11-18T14:10:07;1.60;99.90
2407;DHT22;37709;53.480;9.688;2022-11-18T14:12:35;1.50;99.90
2407;DHT22;37709;53.480;9.688;2022-11-18T14:15:18;1.40;99.90
2407;DHT22;37709;53.480;9.688;2022-11-18T14:17:53;1.30;99.90
2407;DHT22;37709;53.480;9.688;2022-11-18T14:20:21;1.20;99.90
2407;DHT22;37709;53.480;9.688;2022-11-18T14:22:54;1.10;99.90
2407;DHT22;37709;53.480;9.688;2022-11-18T14:25:26;1.00;99.90
2407;DHT22;37709;53.480;9.688;2022-11-18T14:27:55;0.90;99.90
2407;DHT22;37709;53.480;9.688;2022-11-18T14:30:30;0.70;99.90
2407;DHT22;37709;53.480;9.688;2022-11-18T14:35:48;0.50;99.90
2407;DHT22;37709;53.480;9.688;2022-11-18T14:38:19;0.40;99.90
2407;DHT22;37709;53.480;9.688;2022-11-18T14:41:09;0.30;99.90
2407;DHT22;37709;53.480;9.688;2022-11-18T14:43:36;0.10;99.90
2407;DHT22;37709;53.480;9.688;2022-11-18T14:46:16;0.10;99.90
2407;DHT22;37709;53.480;9.688;2022-11-18T14:48:44;0.10;99.90
2407;DHT22;37709;53.480;9.688;2022-11-18T14:51:14;0.00;99.90
2407;DHT22;37709;53.480;9.688;2022-11-18T14:53:42;-0.10;99.90
2407;DHT22;37709;53.480;9.688;2022-11-18T14:56:21;-0.20;99.90
2407;DHT22;37709;53.480;9.688;2022-11-18T14:58:49;-0.20;99.90
2407;DHT22;37709;53.480;9.688;2022-11-18T15:01:20;-0.20;99.90
2407;DHT22;37709;53.480;9.688;2022-11-18T15:03:52;-0.30;99.90
2407;DHT22;37709;53.480;9.688;2022-11-18T15:06:20;-0.40;99.90
2407;DHT22;37709;53.480;9.688;2022-11-18T15:08:50;-0.50;99.90
2407;DHT22;37709;53.480;9.688;2022-11-18T15:11:17;-0.70;99.90
2407;DHT22;37709;53.480;9.688;2022-11-18T15:13:48;-0.90;99.90
2407;DHT22;37709;53.480;9.688;2022-11-18T15:16:22;-0.90;99.90
2407;DHT22;37709;53.480;9.688;2022-11-18T15:18:52;-1.10;99.90
2407;DHT22;37709;53.480;9.688;2022-11-18T15:21:19;-1.10;99.90
2407;DHT22;37709;53.480;9.688;2022-11-18T15:23:47;-1.20;99.90
2407;DHT22;37709;53.480;9.688;2022-11-18T15:26:26;-1.30;99.90
2407;DHT22;37709;53.480;9.688;2022-11-18T15:28:55;-1.40;99.90
2407;DHT22;37709;53.480;9.688;2022-11-18T15:31:23;-1.40;99.90
2407;DHT22;37709;53.480;9.688;2022-11-18T15:33:51;-1.30;99.90
2407;DHT22;37709;53.480;9.688;2022-11-18T15:36:21;-1.40;99.90
2407;DHT22;37709;53.480;9.688;2022-11-18T15:38:49;-1.50;99.90
2407;DHT22;37709;53.480;9.688;2022-11-18T15:41:22;-1.60;99.90
2407;DHT22;37709;53.480;9.688;2022-11-18T15:43:52;-1.70;99.90
2407;DHT22;37709;53.480;9.688;2022-11-18T15:46:22;-1.90;99.90
2407;DHT22;37709;53.480;9.688;2022-11-18T15:48:54;-1.80;99.90
2407;DHT22;37709;53.480;9.688;2022-11-18T15:51:22;-1.90;99.90
2407;DHT22;37709;53.480;9.688;2022-11-18T15:53:49;-2.10;99.90
2407;DHT22;37709;53.480;9.688;2022-11-18T16:01:28;-2.40;99.90
2407;DHT22;37709;53.480;9.688;2022-11-18T16:03:56;-2.30;99.90
2407;DHT22;37709;53.480;9.688;2022-11-18T16:06:24;-2.20;99.90
2407;DHT22;37709;53.480;9.688;2022-11-18T16:08:52;-2.10;99.90
2407;DHT22;37709;53.480;9.688;2022-11-18T16:11:26;-2.00;99.90
2407;DHT22;37709;53.480;9.688;2022-11-18T16:14:15;-2.00;99.90
2407;DHT22;37709;53.480;9.688;2022-11-18T16:16:45;-2.10;99.90
2407;DHT22;37709;53.480;9.688;2022-11-18T16:19:15;-2.20;99.90
2407;DHT22;37709;53.480;9.688;2022-11-18T16:21:46;-2.50;99.90
2407;DHT22;37709;53.480;9.688;2022-11-18T16:24:16;-2.60;99.90
2407;DHT22;37709;53.480;9.688;2022-11-18T16:26:45;-2.40;99.90
2407;DHT22;37709;53.480;9.688;2022-11-18T16:29:12;-2.40;99.90
2407;DHT22;37709;53.480;9.688;2022-11-18T16:31:46;-2.40;99.90
2407;DHT22;37709;53.480;9.688;2022-11-18T16:34:18;-2.40;99.90
2407;DHT22;37709;53.480;9.688;2022-11-18T16:36:51;-2.40;99.90
2407;DHT22;37709;53.480;9.688;2022-11-18T16:39:21;-2.50;99.90
2407;DHT22;37709;53.480;9.688;2022-11-18T16:41:52;-2.60;99.90
2407;DHT22;37709;53.480;9.688;2022-11-18T16:44:23;-2.60;99.90
2407;DHT22;37709;53.480;9.688;2022-11-18T16:46:52;-2.70;99.90
2407;DHT22;37709;53.480;9.688;2022-11-18T16:49:22;-2.80;99.90
2407;DHT22;37709;53.480;9.688;2022-11-18T16:51:54;-2.90;99.90
2407;DHT22;37709;53.480;9.688;2022-11-18T16:54:26;-2.90;99.90
2407;DHT22;37709;53.480;9.688;2022-11-18T16:56:56;-2.90;99.90
2407;DHT22;37709;53.480;9.688;2022-11-18T16:59:25;-2.90;99.90
2407;DHT22;37709;53.480;9.688;2022-11-18T17:01:54;-2.90;99.90
2407;DHT22;37709;53.480;9.688;2022-11-18T17:04:23;-2.90;99.90
2407;DHT22;37709;53.480;9.688;2022-11-18T17:06:52;-3.00;99.90
2407;DHT22;37709;53.480;9.688;2022-11-18T17:09:21;-3.10;99.90
2407;DHT22;37709;53.480;9.688;2022-11-18T17:11:53;-3.10;99.90
2407;DHT22;37709;53.480;9.688;2022-11-18T17:14:22;-3.00;99.90
2407;DHT22;37709;53.480;9.688;2022-11-18T17:16:51;-3.00;99.90
2407;DHT22;37709;53.480;9.688;2022-11-18T17:19:20;-3.00;99.90
2407;DHT22;37709;53.480;9.688;2022-11-18T17:21:50;-3.10;99.90
2407;DHT22;37709;53.480;9.688;2022-11-18T17:24:43;-3.10;99.90
2407;DHT22;37709;53.480;9.688;2022-11-18T17:27:10;-3.20;99.90
2407;DHT22;37709;53.480;9.688;2022-11-18T17:29:37;-3.20;99.90
2407;DHT22;37709;53.480;9.688;2022-11-18T17:32:05;-3.20;99.90
2407;DHT22;37709;53.480;9.688;2022-11-18T17:34:32;-3.30;99.90
2407;DHT22;37709;53.480;9.688;2022-11-18T17:36:59;-3.30;99.90
2407;DHT22;37709;53.480;9.688;2022-11-18T17:39:33;-3.30;99.90
2407;DHT22;37709;53.480;9.688;2022-11-18T17:42:00;-3.30;99.90
2407;DHT22;37709;53.480;9.688;2022-11-18T17:44:40;-3.20;99.90
2407;DHT22;37709;53.480;9.688;2022-11-18T17:47:07;-3.20;99.90
2407;DHT22;37709;53.480;9.688;2022-11-18T17:49:34;-2.80;99.90
2407;DHT22;37709;53.480;9.688;2022-11-18T17:52:02;-2.70;99.90
2407;DHT22;37709;53.480;9.688;2022-11-18T17:54:29;-2.70;99.90
2407;DHT22;37709;53.480;9.688;2022-11-18T17:56:56;-2.70;99.90
2407;DHT22;37709;53.480;9.688;2022-11-18T17:59:23;-2.80;99.90
2407;DHT22;37709;53.480;9.688;2022-11-18T18:01:52;-2.90;99.90
2407;DHT22;37709;53.480;9.688;2022-11-18T18:04:25;-2.90;99.90
2407;DHT22;37709;53.480;9.688;2022-11-18T18:06:53;-2.80;99.90